sensor_id;sensor_type;location;lat;lon;timestamp;P1;durP1;ratioP1;P2;durP2;ratioP2
177;SDS011;77;48.792;9.032;2022-07-10T00:00:38;9.53;;;5.20;;
177;SDS011;77;48.792;9.032;2022-07-10T00:03:04;7.00;;;5.70;;
177;SDS011;77;48.792;9.032;2022-07-10T00:05:29;6.53;;;5.53;;
177;SDS011;77;48.792;9.032;2022-07-10T00:07:54;7.87;;;5.67;;
177;SDS011;77;48.792;9.032;2022-07-10T00:10:20;6.30;;;5.20;;
177;SDS011;77;48.792;9.032;2022-07-10T00:12:45;6.40;;;5.53;;
177;SDS011;77;48.792;9.032;2022-07-10T00:15:11;6.60;;;5.40;;
177;SDS011;77;48.792;9.032;2022-07-10T00:17:37;6.53;;;5.20;;
177;SDS011;77;48.792;9.032;2022-07-10T00:20:03;6.00;;;5.47;;
177;SDS011;77;48.792;9.032;2022-07-10T00:22:28;6.20;;;5.30;;
177;SDS011;77;48.792;9.032;2022-07-10T00:24:53;7.20;;;5.70;;
177;SDS011;77;48.792;9.032;2022-07-10T00:27:19;8.03;;;5.10;;
177;SDS011;77;48.792;9.032;2022-07-10T00:29:44;6.67;;;5.50;;
177;SDS011;77;48.792;9.032;2022-07-10T00:32:09;7.17;;;5.83;;
177;SDS011;77;48.792;9.032;2022-07-10T00:34:36;7.50;;;5.30;;
177;SDS011;77;48.792;9.032;2022-07-10T00:37:01;5.73;;;5.40;;
177;SDS011;77;48.792;9.032;2022-07-10T00:39:26;6.50;;;5.20;;
177;SDS011;77;48.792;9.032;2022-07-10T00:41:52;6.87;;;5.37;;
177;SDS011;77;48.792;9.032;2022-07-10T00:44:17;7.10;;;5.77;;
177;SDS011;77;48.792;9.032;2022-07-10T00:46:42;8.13;;;6.20;;
177;SDS011;77;48.792;9.032;2022-07-10T00:49:07;6.63;;;5.50;;
177;SDS011;77;48.792;9.032;2022-07-10T00:51:34;8.00;;;5.87;;
177;SDS011;77;48.792;9.032;2022-07-10T00:53:59;8.10;;;5.57;;
177;SDS011;77;48.792;9.032;2022-07-10T00:56:25;6.40;;;5.40;;
177;SDS011;77;48.792;9.032;2022-07-10T00:58:51;7.30;;;5.97;;
177;SDS011;77;48.792;9.032;2022-07-10T01:01:17;6.67;;;5.70;;
177;SDS011;77;48.792;9.032;2022-07-10T01:03:42;6.03;;;5.33;;
177;SDS011;77;48.792;9.032;2022-07-10T01:06:07;6.40;;;5.50;;
177;SDS011;77;48.792;9.032;2022-07-10T01:08:34;6.10;;;5.60;;
177;SDS011;77;48.792;9.032;2022-07-10T01:10:59;8.33;;;5.70;;
177;SDS011;77;48.792;9.032;2022-07-10T01:13:25;7.30;;;6.07;;
177;SDS011;77;48.792;9.032;2022-07-10T01:15:50;9.67;;;6.10;;
177;SDS011;77;48.792;9.032;2022-07-10T01:18:16;7.33;;;5.73;;
177;SDS011;77;48.792;9.032;2022-07-10T01:20:42;5.93;;;5.43;;
177;SDS011;77;48.792;9.032;2022-07-10T01:23:08;8.50;;;6.10;;
177;SDS011;77;48.792;9.032;2022-07-10T01:25:34;7.60;;;6.20;;
177;SDS011;77;48.792;9.032;2022-07-10T01:27:59;7.23;;;5.77;;
177;SDS011;77;48.792;9.032;2022-07-10T01:30:24;7.10;;;6.00;;
177;SDS011;77;48.792;9.032;2022-07-10T01:32:50;7.77;;;6.17;;
177;SDS011;77;48.792;9.032;2022-07-10T01:35:15;7.40;;;6.27;;
177;SDS011;77;48.792;9.032;2022-07-10T01:37:40;7.90;;;6.50;;
177;SDS011;77;48.792;9.032;2022-07-10T01:40:07;9.90;;;7.13;;
177;SDS011;77;48.792;9.032;2022-07-10T01:42:32;9.27;;;7.60;;
177;SDS011;77;48.792;9.032;2022-07-10T01:44:58;11.47;;;6.93;;
177;SDS011;77;48.792;9.032;2022-07-10T01:47:23;12.20;;;7.40;;
177;SDS011;77;48.792;9.032;2022-07-10T01:49:48;11.10;;;7.50;;
177;SDS011;77;48.792;9.032;2022-07-10T01:52:14;10.07;;;7.60;;
177;SDS011;77;48.792;9.032;2022-07-10T01:54:39;10.63;;;7.73;;
177;SDS011;77;48.792;9.032;2022-07-10T01:57:06;9.97;;;8.30;;
177;SDS011;77;48.792;9.032;2022-07-10T01:59:31;11.37;;;9.00;;
177;SDS011;77;48.792;9.032;2022-07-10T02:01:56;10.37;;;8.20;;
177;SDS011;77;48.792;9.032;2022-07-10T02:04:21;11.07;;;8.73;;
177;SDS011;77;48.792;9.032;2022-07-10T02:06:46;10.80;;;9.20;;
177;SDS011;77;48.792;9.032;2022-07-10T02:09:11;13.17;;;9.67;;
177;SDS011;77;48.792;9.032;2022-07-10T02:11:37;13.93;;;10.20;;
177;SDS011;77;48.792;9.032;2022-07-10T02:14:03;12.77;;;10.50;;
177;SDS011;77;48.792;9.032;2022-07-10T02:16:28;14.33;;;11.40;;
177;SDS011;77;48.792;9.032;2022-07-10T02:18:54;15.03;;;11.77;;
177;SDS011;77;48.792;9.032;2022-07-10T02:21:19;13.27;;;11.90;;
177;SDS011;77;48.792;9.032;2022-07-10T02:23:44;13.93;;;11.47;;
177;SDS011;77;48.792;9.032;2022-07-10T02:26:09;15.00;;;12.80;;
177;SDS011;77;48.792;9.032;2022-07-10T02:28:34;16.90;;;12.93;;
177;SDS011;77;48.792;9.032;2022-07-10T02:31:01;16.27;;;13.77;;
177;SDS011;77;48.792;9.032;2022-07-10T02:33:26;19.57;;;14.50;;
177;SDS011;77;48.792;9.032;2022-07-10T02:35:51;20.07;;;13.80;;
177;SDS011;77;48.792;9.032;2022-07-10T02:38:16;17.27;;;14.00;;
177;SDS011;77;48.792;9.032;2022-07-10T02:40:42;15.63;;;13.57;;
177;SDS011;77;48.792;9.032;2022-07-10T02:43:07;19.50;;;13.10;;
177;SDS011;77;48.792;9.032;2022-07-10T02:45:32;16.17;;;13.13;;
177;SDS011;77;48.792;9.032;2022-07-10T02:47:59;15.53;;;12.83;;
177;SDS011;77;48.792;9.032;2022-07-10T02:50:24;16.57;;;12.37;;
177;SDS011;77;48.792;9.032;2022-07-10T02:52:49;15.30;;;13.20;;
177;SDS011;77;48.792;9.032;2022-07-10T02:55:14;17.57;;;15.30;;
177;SDS011;77;48.792;9.032;2022-07-10T02:57:39;18.23;;;15.07;;
177;SDS011;77;48.792;9.032;2022-07-10T03:00:05;18.43;;;14.83;;
177;SDS011;77;48.792;9.032;2022-07-10T03:02:31;17.67;;;14.00;;
177;SDS011;77;48.792;9.032;2022-07-10T03:04:57;20.00;;;15.37;;
177;SDS011;77;48.792;9.032;2022-07-10T03:07:22;16.70;;;13.80;;
177;SDS011;77;48.792;9.032;2022-07-10T03:09:47;16.80;;;13.93;;
177;SDS011;77;48.792;9.032;2022-07-10T03:12:13;19.30;;;14.80;;
177;SDS011;77;48.792;9.032;2022-07-10T03:14:38;18.87;;;15.07;;
177;SDS011;77;48.792;9.032;2022-07-10T03:17:03;17.83;;;15.13;;
177;SDS011;77;48.792;9.032;2022-07-10T03:19:29;17.47;;;13.33;;
177;SDS011;77;48.792;9.032;2022-07-10T03:21:55;17.97;;;15.60;;
177;SDS011;77;48.792;9.032;2022-07-10T03:24:20;20.07;;;15.70;;
177;SDS011;77;48.792;9.032;2022-07-10T03:26:45;17.13;;;14.20;;
177;SDS011;77;48.792;9.032;2022-07-10T03:29:11;18.50;;;14.80;;
177;SDS011;77;48.792;9.032;2022-07-10T03:31:36;17.77;;;14.63;;
177;SDS011;77;48.792;9.032;2022-07-10T03:34:01;19.73;;;14.47;;
177;SDS011;77;48.792;9.032;2022-07-10T03:36:26;16.80;;;14.87;;
177;SDS011;77;48.792;9.032;2022-07-10T03:38:53;16.20;;;13.50;;
177;SDS011;77;48.792;9.032;2022-07-10T03:41:18;15.13;;;11.63;;
177;SDS011;77;48.792;9.032;2022-07-10T03:43:44;17.20;;;13.97;;
177;SDS011;77;48.792;9.032;2022-07-10T03:46:09;18.20;;;14.10;;
177;SDS011;77;48.792;9.032;2022-07-10T03:48:34;17.40;;;14.67;;
177;SDS011;77;48.792;9.032;2022-07-10T03:50:59;17.40;;;14.83;;
177;SDS011;77;48.792;9.032;2022-07-10T03:53:25;17.67;;;13.70;;
177;SDS011;77;48.792;9.032;2022-07-10T03:55:51;16.83;;;13.90;;
177;SDS011;77;48.792;9.032;2022-07-10T03:58:16;15.40;;;13.30;;
177;SDS011;77;48.792;9.032;2022-07-10T04:00:41;17.63;;;13.30;;
177;SDS011;77;48.792;9.032;2022-07-10T04:03:07;19.00;;;13.27;;
177;SDS011;77;48.792;9.032;2022-07-10T04:05:32;21.10;;;14.13;;
177;SDS011;77;48.792;9.032;2022-07-10T04:07:58;16.10;;;12.70;;
177;SDS011;77;48.792;9.032;2022-07-10T04:10:23;17.63;;;12.80;;
177;SDS011;77;48.792;9.032;2022-07-10T04:12:50;15.30;;;11.83;;
177;SDS011;77;48.792;9.032;2022-07-10T04:15:15;17.23;;;12.57;;
177;SDS011;77;48.792;9.032;2022-07-10T04:17:40;14.93;;;12.17;;
177;SDS011;77;48.792;9.032;2022-07-10T04:20:06;15.07;;;11.47;;
177;SDS011;77;48.792;9.032;2022-07-10T04:22:31;22.10;;;11.13;;
177;SDS011;77;48.792;9.032;2022-07-10T04:24:56;17.50;;;11.67;;
177;SDS011;77;48.792;9.032;2022-07-10T04:27:21;14.20;;;11.60;;
177;SDS011;77;48.792;9.032;2022-07-10T04:29:48;13.93;;;11.17;;
177;SDS011;77;48.792;9.032;2022-07-10T04:32:13;13.50;;;10.60;;
177;SDS011;77;48.792;9.032;2022-07-10T04:34:39;12.60;;;10.13;;
177;SDS011;77;48.792;9.032;2022-07-10T04:37:04;13.23;;;10.40;;
177;SDS011;77;48.792;9.032;2022-07-10T04:39:29;11.97;;;9.83;;
177;SDS011;77;48.792;9.032;2022-07-10T04:41:54;12.47;;;9.60;;
177;SDS011;77;48.792;9.032;2022-07-10T04:44:20;15.60;;;10.17;;
177;SDS011;77;48.792;9.032;2022-07-10T04:46:46;15.27;;;9.80;;
177;SDS011;77;48.792;9.032;2022-07-10T04:49:11;13.17;;;9.83;;
177;SDS011;77;48.792;9.032;2022-07-10T04:51:36;16.93;;;10.37;;
177;SDS011;77;48.792;9.032;2022-07-10T04:54:02;12.03;;;9.30;;
177;SDS011;77;48.792;9.032;2022-07-10T04:56:27;11.40;;;9.73;;
177;SDS011;77;48.792;9.032;2022-07-10T04:58:52;13.90;;;10.30;;
177;SDS011;77;48.792;9.032;2022-07-10T05:01:17;12.00;;;9.87;;
177;SDS011;77;48.792;9.032;2022-07-10T05:03:44;12.87;;;9.70;;
177;SDS011;77;48.792;9.032;2022-07-10T05:06:09;14.67;;;10.27;;
177;SDS011;77;48.792;9.032;2022-07-10T05:08:34;12.80;;;9.40;;
177;SDS011;77;48.792;9.032;2022-07-10T05:10:59;11.70;;;9.33;;
177;SDS011;77;48.792;9.032;2022-07-10T05:13:25;10.77;;;8.80;;
177;SDS011;77;48.792;9.032;2022-07-10T05:15:50;12.20;;;9.33;;
177;SDS011;77;48.792;9.032;2022-07-10T05:18:15;12.40;;;8.47;;
177;SDS011;77;48.792;9.032;2022-07-10T05:20:42;11.13;;;8.50;;
177;SDS011;77;48.792;9.032;2022-07-10T05:23:07;13.40;;;8.70;;
177;SDS011;77;48.792;9.032;2022-07-10T05:25:32;10.73;;;8.10;;
177;SDS011;77;48.792;9.032;2022-07-10T05:27:57;8.97;;;7.40;;
177;SDS011;77;48.792;9.032;2022-07-10T05:30:23;11.60;;;6.87;;
177;SDS011;77;48.792;9.032;2022-07-10T05:32:48;9.63;;;7.30;;
177;SDS011;77;48.792;9.032;2022-07-10T05:35:13;10.23;;;7.30;;
177;SDS011;77;48.792;9.032;2022-07-10T05:37:40;12.43;;;7.37;;
177;SDS011;77;48.792;9.032;2022-07-10T05:40:05;9.77;;;7.37;;
177;SDS011;77;48.792;9.032;2022-07-10T05:42:31;10.73;;;6.83;;
177;SDS011;77;48.792;9.032;2022-07-10T05:44:56;9.53;;;6.70;;
177;SDS011;77;48.792;9.032;2022-07-10T05:47:21;11.63;;;6.97;;
177;SDS011;77;48.792;9.032;2022-07-10T05:49:46;10.97;;;6.93;;
177;SDS011;77;48.792;9.032;2022-07-10T05:52:11;11.33;;;6.53;;
177;SDS011;77;48.792;9.032;2022-07-10T05:54:38;10.70;;;6.03;;
177;SDS011;77;48.792;9.032;2022-07-10T05:57:03;7.10;;;6.00;;
177;SDS011;77;48.792;9.032;2022-07-10T05:59:29;8.37;;;5.37;;
177;SDS011;77;48.792;9.032;2022-07-10T06:01:54;8.13;;;5.20;;
177;SDS011;77;48.792;9.032;2022-07-10T06:04:19;7.80;;;5.40;;
177;SDS011;77;48.792;9.032;2022-07-10T06:06:44;8.83;;;5.10;;
177;SDS011;77;48.792;9.032;2022-07-10T06:09:09;7.90;;;5.13;;
177;SDS011;77;48.792;9.032;2022-07-10T06:11:36;6.30;;;4.77;;
177;SDS011;77;48.792;9.032;2022-07-10T06:14:01;7.00;;;4.80;;
177;SDS011;77;48.792;9.032;2022-07-10T06:16:26;7.90;;;5.30;;
177;SDS011;77;48.792;9.032;2022-07-10T06:18:51;7.60;;;5.07;;
177;SDS011;77;48.792;9.032;2022-07-10T06:21:17;8.10;;;5.40;;
177;SDS011;77;48.792;9.032;2022-07-10T06:23:42;7.63;;;5.33;;
177;SDS011;77;48.792;9.032;2022-07-10T06:26:07;7.33;;;5.40;;
177;SDS011;77;48.792;9.032;2022-07-10T06:28:35;6.83;;;5.27;;
177;SDS011;77;48.792;9.032;2022-07-10T06:31:00;11.03;;;6.00;;
177;SDS011;77;48.792;9.032;2022-07-10T06:33:25;7.70;;;5.10;;
177;SDS011;77;48.792;9.032;2022-07-10T06:35:50;8.10;;;5.30;;
177;SDS011;77;48.792;9.032;2022-07-10T06:38:15;7.73;;;4.70;;
177;SDS011;77;48.792;9.032;2022-07-10T06:40:41;7.17;;;4.60;;
177;SDS011;77;48.792;9.032;2022-07-10T06:43:06;6.80;;;4.13;;
177;SDS011;77;48.792;9.032;2022-07-10T06:45:33;7.63;;;4.67;;
177;SDS011;77;48.792;9.032;2022-07-10T06:47:58;7.63;;;4.30;;
177;SDS011;77;48.792;9.032;2022-07-10T06:50:23;9.17;;;4.00;;
177;SDS011;77;48.792;9.032;2022-07-10T06:52:48;8.20;;;4.27;;
177;SDS011;77;48.792;9.032;2022-07-10T06:55:14;8.87;;;4.53;;
177;SDS011;77;48.792;9.032;2022-07-10T06:57:39;8.67;;;4.37;;
177;SDS011;77;48.792;9.032;2022-07-10T07:00:05;6.97;;;4.20;;
177;SDS011;77;48.792;9.032;2022-07-10T07:02:31;6.50;;;3.87;;
177;SDS011;77;48.792;9.032;2022-07-10T07:04:57;4.90;;;3.90;;
177;SDS011;77;48.792;9.032;2022-07-10T07:07:22;5.90;;;3.77;;
177;SDS011;77;48.792;9.032;2022-07-10T07:09:47;4.37;;;3.57;;
177;SDS011;77;48.792;9.032;2022-07-10T07:12:12;6.13;;;3.57;;
177;SDS011;77;48.792;9.032;2022-07-10T07:14:38;8.23;;;3.60;;
177;SDS011;77;48.792;9.032;2022-07-10T07:17:03;6.63;;;3.67;;
177;SDS011;77;48.792;9.032;2022-07-10T07:19:30;4.83;;;3.50;;
177;SDS011;77;48.792;9.032;2022-07-10T07:21:55;7.40;;;3.97;;
177;SDS011;77;48.792;9.032;2022-07-10T07:24:21;8.30;;;3.90;;
177;SDS011;77;48.792;9.032;2022-07-10T07:26:46;6.67;;;3.53;;
177;SDS011;77;48.792;9.032;2022-07-10T07:29:11;3.80;;;3.20;;
177;SDS011;77;48.792;9.032;2022-07-10T07:31:36;4.67;;;3.43;;
177;SDS011;77;48.792;9.032;2022-07-10T07:34:01;6.00;;;3.60;;
177;SDS011;77;48.792;9.032;2022-07-10T07:36:28;4.60;;;3.50;;
177;SDS011;77;48.792;9.032;2022-07-10T07:38:53;8.13;;;3.50;;
177;SDS011;77;48.792;9.032;2022-07-10T07:41:18;4.70;;;3.10;;
177;SDS011;77;48.792;9.032;2022-07-10T07:43:43;9.30;;;3.27;;
177;SDS011;77;48.792;9.032;2022-07-10T07:46:09;7.23;;;3.83;;
177;SDS011;77;48.792;9.032;2022-07-10T07:48:34;6.47;;;3.57;;
177;SDS011;77;48.792;9.032;2022-07-10T07:50:59;5.70;;;3.20;;
177;SDS011;77;48.792;9.032;2022-07-10T07:53:26;4.73;;;2.90;;
177;SDS011;77;48.792;9.032;2022-07-10T07:55:51;5.37;;;2.80;;
177;SDS011;77;48.792;9.032;2022-07-10T07:58:16;10.63;;;3.10;;
177;SDS011;77;48.792;9.032;2022-07-10T08:00:41;5.87;;;3.20;;
177;SDS011;77;48.792;9.032;2022-07-10T08:03:06;5.17;;;3.10;;
177;SDS011;77;48.792;9.032;2022-07-10T08:05:32;8.33;;;3.20;;
177;SDS011;77;48.792;9.032;2022-07-10T08:07:58;5.93;;;2.87;;
177;SDS011;77;48.792;9.032;2022-07-10T08:10:25;7.70;;;3.13;;
177;SDS011;77;48.792;9.032;2022-07-10T08:12:50;5.23;;;3.00;;
177;SDS011;77;48.792;9.032;2022-07-10T08:15:16;4.70;;;3.13;;
177;SDS011;77;48.792;9.032;2022-07-10T08:17:42;5.37;;;3.30;;
177;SDS011;77;48.792;9.032;2022-07-10T08:20:08;5.07;;;2.90;;
177;SDS011;77;48.792;9.032;2022-07-10T08:22:35;6.80;;;3.13;;
177;SDS011;77;48.792;9.032;2022-07-10T08:25:00;3.70;;;2.80;;
177;SDS011;77;48.792;9.032;2022-07-10T08:27:26;4.30;;;2.87;;
177;SDS011;77;48.792;9.032;2022-07-10T08:29:52;7.23;;;3.30;;
177;SDS011;77;48.792;9.032;2022-07-10T08:32:17;5.53;;;3.30;;
177;SDS011;77;48.792;9.032;2022-07-10T08:34:42;17.00;;;3.53;;
177;SDS011;77;48.792;9.032;2022-07-10T08:37:07;5.17;;;3.10;;
177;SDS011;77;48.792;9.032;2022-07-10T08:39:33;4.00;;;2.70;;
177;SDS011;77;48.792;9.032;2022-07-10T08:41:58;4.97;;;3.00;;
177;SDS011;77;48.792;9.032;2022-07-10T08:44:25;5.30;;;2.90;;
177;SDS011;77;48.792;9.032;2022-07-10T08:46:50;5.40;;;3.00;;
177;SDS011;77;48.792;9.032;2022-07-10T08:49:16;6.03;;;2.80;;
177;SDS011;77;48.792;9.032;2022-07-10T08:51:44;4.60;;;2.90;;
177;SDS011;77;48.792;9.032;2022-07-10T08:54:12;5.90;;;3.13;;
177;SDS011;77;48.792;9.032;2022-07-10T08:56:38;5.93;;;3.10;;
177;SDS011;77;48.792;9.032;2022-07-10T08:59:03;6.73;;;3.00;;
177;SDS011;77;48.792;9.032;2022-07-10T09:01:30;6.17;;;3.40;;
177;SDS011;77;48.792;9.032;2022-07-10T09:03:55;8.97;;;3.10;;
177;SDS011;77;48.792;9.032;2022-07-10T09:06:20;6.00;;;3.07;;
177;SDS011;77;48.792;9.032;2022-07-10T09:08:59;4.63;;;2.90;;
177;SDS011;77;48.792;9.032;2022-07-10T09:11:24;5.80;;;3.30;;
177;SDS011;77;48.792;9.032;2022-07-10T09:13:50;4.50;;;3.13;;
177;SDS011;77;48.792;9.032;2022-07-10T09:16:19;5.60;;;3.17;;
177;SDS011;77;48.792;9.032;2022-07-10T09:18:46;6.10;;;3.10;;
177;SDS011;77;48.792;9.032;2022-07-10T09:21:11;6.00;;;3.10;;
177;SDS011;77;48.792;9.032;2022-07-10T09:23:36;5.50;;;3.10;;
177;SDS011;77;48.792;9.032;2022-07-10T09:26:01;6.37;;;3.10;;
177;SDS011;77;48.792;9.032;2022-07-10T09:28:29;8.30;;;3.30;;
177;SDS011;77;48.792;9.032;2022-07-10T09:30:54;5.97;;;3.00;;
177;SDS011;77;48.792;9.032;2022-07-10T09:33:21;5.07;;;3.00;;
177;SDS011;77;48.792;9.032;2022-07-10T09:36:00;6.77;;;3.43;;
177;SDS011;77;48.792;9.032;2022-07-10T09:38:26;5.27;;;3.13;;
177;SDS011;77;48.792;9.032;2022-07-10T09:40:51;5.53;;;3.60;;
177;SDS011;77;48.792;9.032;2022-07-10T09:43:16;6.03;;;3.30;;
177;SDS011;77;48.792;9.032;2022-07-10T09:45:41;5.70;;;3.50;;
177;SDS011;77;48.792;9.032;2022-07-10T09:48:07;7.33;;;3.70;;
177;SDS011;77;48.792;9.032;2022-07-10T09:50:32;5.03;;;3.50;;
177;SDS011;77;48.792;9.032;2022-07-10T09:53:00;4.17;;;3.20;;
177;SDS011;77;48.792;9.032;2022-07-10T09:55:26;3.93;;;3.30;;
177;SDS011;77;48.792;9.032;2022-07-10T09:57:55;5.40;;;3.13;;
177;SDS011;77;48.792;9.032;2022-07-10T10:00:22;6.37;;;3.03;;
177;SDS011;77;48.792;9.032;2022-07-10T10:02:47;6.27;;;3.50;;
177;SDS011;77;48.792;9.032;2022-07-10T10:05:13;7.40;;;3.20;;
177;SDS011;77;48.792;9.032;2022-07-10T10:07:39;5.90;;;3.50;;
177;SDS011;77;48.792;9.032;2022-07-10T10:10:06;4.53;;;3.20;;
177;SDS011;77;48.792;9.032;2022-07-10T10:12:34;4.20;;;3.03;;
177;SDS011;77;48.792;9.032;2022-07-10T10:15:00;6.47;;;3.50;;
177;SDS011;77;48.792;9.032;2022-07-10T10:17:26;5.67;;;3.37;;
177;SDS011;77;48.792;9.032;2022-07-10T10:19:51;5.10;;;3.20;;
177;SDS011;77;48.792;9.032;2022-07-10T10:22:19;5.00;;;3.10;;
177;SDS011;77;48.792;9.032;2022-07-10T10:24:45;6.33;;;3.23;;
177;SDS011;77;48.792;9.032;2022-07-10T10:27:12;4.90;;;2.90;;
177;SDS011;77;48.792;9.032;2022-07-10T10:29:38;7.80;;;3.67;;
177;SDS011;77;48.792;9.032;2022-07-10T10:32:04;7.60;;;3.60;;
177;SDS011;77;48.792;9.032;2022-07-10T10:34:39;5.77;;;3.40;;
177;SDS011;77;48.792;9.032;2022-07-10T10:37:05;5.77;;;3.60;;
177;SDS011;77;48.792;9.032;2022-07-10T10:39:31;6.13;;;3.67;;
177;SDS011;77;48.792;9.032;2022-07-10T10:50:20;5.70;;;3.23;;
177;SDS011;77;48.792;9.032;2022-07-10T10:53:00;5.70;;;3.13;;
177;SDS011;77;48.792;9.032;2022-07-10T10:55:25;6.77;;;3.07;;
177;SDS011;77;48.792;9.032;2022-07-10T10:57:51;5.60;;;3.07;;
177;SDS011;77;48.792;9.032;2022-07-10T11:03:12;7.23;;;2.70;;
177;SDS011;77;48.792;9.032;2022-07-10T11:05:44;5.70;;;2.77;;
177;SDS011;77;48.792;9.032;2022-07-10T11:08:11;3.20;;;2.40;;
177;SDS011;77;48.792;9.032;2022-07-10T11:10:36;3.83;;;2.77;;
177;SDS011;77;48.792;9.032;2022-07-10T11:13:02;4.90;;;2.70;;
177;SDS011;77;48.792;9.032;2022-07-10T11:15:28;3.20;;;2.23;;
177;SDS011;77;48.792;9.032;2022-07-10T11:17:53;13.13;;;2.87;;
177;SDS011;77;48.792;9.032;2022-07-10T11:20:18;118.23;;;9.07;;
177;SDS011;77;48.792;9.032;2022-07-10T11:22:52;5.10;;;2.30;;
177;SDS011;77;48.792;9.032;2022-07-10T11:25:25;5.20;;;2.33;;
177;SDS011;77;48.792;9.032;2022-07-10T11:27:57;5.47;;;2.20;;
177;SDS011;77;48.792;9.032;2022-07-10T11:30:25;3.83;;;2.30;;
177;SDS011;77;48.792;9.032;2022-07-10T11:32:50;5.40;;;2.40;;
177;SDS011;77;48.792;9.032;2022-07-10T11:35:16;5.47;;;2.30;;
177;SDS011;77;48.792;9.032;2022-07-10T11:37:49;4.47;;;2.40;;
177;SDS011;77;48.792;9.032;2022-07-10T11:40:15;6.30;;;2.50;;
177;SDS011;77;48.792;9.032;2022-07-10T11:42:53;4.83;;;2.50;;
177;SDS011;77;48.792;9.032;2022-07-10T11:45:25;3.60;;;2.40;;
177;SDS011;77;48.792;9.032;2022-07-10T11:47:50;4.03;;;2.50;;
177;SDS011;77;48.792;9.032;2022-07-10T11:50:15;4.77;;;2.30;;
177;SDS011;77;48.792;9.032;2022-07-10T11:52:41;4.40;;;2.57;;
177;SDS011;77;48.792;9.032;2022-07-10T11:55:14;7.83;;;2.30;;
177;SDS011;77;48.792;9.032;2022-07-10T11:57:39;4.53;;;2.27;;
177;SDS011;77;48.792;9.032;2022-07-10T12:00:05;5.70;;;2.43;;
177;SDS011;77;48.792;9.032;2022-07-10T12:02:30;5.03;;;2.43;;
177;SDS011;77;48.792;9.032;2022-07-10T12:04:56;3.20;;;2.20;;
177;SDS011;77;48.792;9.032;2022-07-10T12:07:21;3.80;;;2.37;;
177;SDS011;77;48.792;9.032;2022-07-10T12:09:52;3.17;;;2.10;;
177;SDS011;77;48.792;9.032;2022-07-10T12:12:22;3.50;;;2.30;;
177;SDS011;77;48.792;9.032;2022-07-10T12:14:47;5.17;;;2.30;;
177;SDS011;77;48.792;9.032;2022-07-10T12:17:12;3.03;;;2.20;;
177;SDS011;77;48.792;9.032;2022-07-10T12:19:38;3.97;;;2.30;;
177;SDS011;77;48.792;9.032;2022-07-10T12:22:04;3.40;;;2.10;;
177;SDS011;77;48.792;9.032;2022-07-10T12:24:29;4.40;;;2.33;;
177;SDS011;77;48.792;9.032;2022-07-10T12:26:55;5.30;;;2.40;;
177;SDS011;77;48.792;9.032;2022-07-10T12:29:22;4.60;;;2.20;;
177;SDS011;77;48.792;9.032;2022-07-10T12:31:47;2.90;;;2.10;;
177;SDS011;77;48.792;9.032;2022-07-10T12:34:13;4.10;;;2.30;;
177;SDS011;77;48.792;9.032;2022-07-10T12:36:42;6.07;;;2.10;;
177;SDS011;77;48.792;9.032;2022-07-10T12:39:07;2.97;;;2.00;;
177;SDS011;77;48.792;9.032;2022-07-10T12:41:32;4.47;;;2.30;;
177;SDS011;77;48.792;9.032;2022-07-10T12:43:58;2.53;;;1.90;;
177;SDS011;77;48.792;9.032;2022-07-10T12:46:24;7.77;;;2.00;;
177;SDS011;77;48.792;9.032;2022-07-10T12:49:05;3.47;;;1.80;;
177;SDS011;77;48.792;9.032;2022-07-10T12:51:31;4.03;;;2.03;;
177;SDS011;77;48.792;9.032;2022-07-10T12:53:56;3.83;;;1.90;;
177;SDS011;77;48.792;9.032;2022-07-10T12:56:28;3.63;;;2.00;;
177;SDS011;77;48.792;9.032;2022-07-10T12:58:54;3.77;;;2.03;;
177;SDS011;77;48.792;9.032;2022-07-10T13:01:19;4.90;;;1.90;;
177;SDS011;77;48.792;9.032;2022-07-10T13:03:45;3.07;;;1.80;;
177;SDS011;77;48.792;9.032;2022-07-10T13:06:24;3.60;;;1.80;;
177;SDS011;77;48.792;9.032;2022-07-10T13:08:50;7.23;;;1.80;;
177;SDS011;77;48.792;9.032;2022-07-10T13:11:15;3.80;;;1.87;;
177;SDS011;77;48.792;9.032;2022-07-10T13:13:40;2.10;;;1.50;;
177;SDS011;77;48.792;9.032;2022-07-10T13:16:05;3.10;;;1.90;;
177;SDS011;77;48.792;9.032;2022-07-10T13:18:31;4.23;;;1.93;;
177;SDS011;77;48.792;9.032;2022-07-10T13:20:57;3.83;;;2.00;;
177;SDS011;77;48.792;9.032;2022-07-10T13:23:22;3.20;;;1.87;;
177;SDS011;77;48.792;9.032;2022-07-10T13:25:48;2.87;;;1.80;;
177;SDS011;77;48.792;9.032;2022-07-10T13:28:14;2.73;;;1.83;;
177;SDS011;77;48.792;9.032;2022-07-10T13:30:39;4.20;;;2.00;;
177;SDS011;77;48.792;9.032;2022-07-10T13:33:04;4.20;;;1.90;;
177;SDS011;77;48.792;9.032;2022-07-10T13:35:29;3.40;;;1.70;;
177;SDS011;77;48.792;9.032;2022-07-10T13:37:56;3.93;;;1.80;;
177;SDS011;77;48.792;9.032;2022-07-10T13:40:22;4.27;;;1.80;;
177;SDS011;77;48.792;9.032;2022-07-10T13:42:47;2.70;;;1.80;;
177;SDS011;77;48.792;9.032;2022-07-10T13:45:12;3.50;;;2.00;;
177;SDS011;77;48.792;9.032;2022-07-10T13:47:37;2.83;;;1.80;;
177;SDS011;77;48.792;9.032;2022-07-10T13:50:03;4.33;;;1.80;;
177;SDS011;77;48.792;9.032;2022-07-10T13:52:28;2.83;;;1.77;;
177;SDS011;77;48.792;9.032;2022-07-10T13:54:55;4.67;;;2.00;;
177;SDS011;77;48.792;9.032;2022-07-10T13:57:20;4.20;;;1.80;;
177;SDS011;77;48.792;9.032;2022-07-10T13:59:45;2.93;;;1.90;;
177;SDS011;77;48.792;9.032;2022-07-10T14:02:11;4.00;;;1.83;;
177;SDS011;77;48.792;9.032;2022-07-10T14:04:36;4.07;;;2.03;;
177;SDS011;77;48.792;9.032;2022-07-10T14:07:01;4.60;;;2.00;;
177;SDS011;77;48.792;9.032;2022-07-10T14:09:26;3.33;;;2.10;;
177;SDS011;77;48.792;9.032;2022-07-10T14:11:53;3.80;;;1.90;;
177;SDS011;77;48.792;9.032;2022-07-10T14:14:18;2.70;;;1.70;;
177;SDS011;77;48.792;9.032;2022-07-10T14:16:43;5.70;;;2.10;;
177;SDS011;77;48.792;9.032;2022-07-10T14:19:08;8.87;;;2.00;;
177;SDS011;77;48.792;9.032;2022-07-10T14:21:34;3.93;;;1.80;;
177;SDS011;77;48.792;9.032;2022-07-10T14:24:00;3.10;;;1.90;;
177;SDS011;77;48.792;9.032;2022-07-10T14:26:27;8.20;;;2.10;;
177;SDS011;77;48.792;9.032;2022-07-10T14:28:53;3.00;;;2.00;;
177;SDS011;77;48.792;9.032;2022-07-10T14:31:18;4.17;;;2.20;;
177;SDS011;77;48.792;9.032;2022-07-10T14:33:43;2.90;;;1.90;;
177;SDS011;77;48.792;9.032;2022-07-10T14:36:09;4.70;;;1.80;;
177;SDS011;77;48.792;9.032;2022-07-10T14:38:34;4.30;;;1.90;;
177;SDS011;77;48.792;9.032;2022-07-10T14:40:59;5.87;;;2.10;;
177;SDS011;77;48.792;9.032;2022-07-10T14:43:24;2.50;;;1.73;;
177;SDS011;77;48.792;9.032;2022-07-10T14:45:51;3.00;;;1.77;;
177;SDS011;77;48.792;9.032;2022-07-10T14:48:16;6.97;;;1.87;;
177;SDS011;77;48.792;9.032;2022-07-10T14:50:41;4.03;;;1.90;;
177;SDS011;77;48.792;9.032;2022-07-10T14:53:06;3.43;;;1.90;;
177;SDS011;77;48.792;9.032;2022-07-10T14:55:32;5.07;;;2.00;;
177;SDS011;77;48.792;9.032;2022-07-10T14:57:57;2.83;;;1.90;;
177;SDS011;77;48.792;9.032;2022-07-10T15:00:22;3.13;;;1.83;;
177;SDS011;77;48.792;9.032;2022-07-10T15:02:49;3.77;;;2.03;;
177;SDS011;77;48.792;9.032;2022-07-10T15:05:14;4.37;;;1.83;;
177;SDS011;77;48.792;9.032;2022-07-10T15:07:39;4.13;;;2.00;;
177;SDS011;77;48.792;9.032;2022-07-10T15:10:05;4.23;;;1.90;;
177;SDS011;77;48.792;9.032;2022-07-10T15:12:30;4.13;;;2.03;;
177;SDS011;77;48.792;9.032;2022-07-10T15:14:55;4.67;;;1.83;;
177;SDS011;77;48.792;9.032;2022-07-10T15:17:20;4.60;;;1.90;;
177;SDS011;77;48.792;9.032;2022-07-10T15:19:47;3.13;;;1.90;;
177;SDS011;77;48.792;9.032;2022-07-10T15:22:12;5.97;;;1.90;;
177;SDS011;77;48.792;9.032;2022-07-10T15:24:37;3.03;;;1.80;;
177;SDS011;77;48.792;9.032;2022-07-10T15:27:03;3.93;;;1.90;;
177;SDS011;77;48.792;9.032;2022-07-10T15:29:28;4.43;;;2.00;;
177;SDS011;77;48.792;9.032;2022-07-10T15:31:53;3.00;;;1.90;;
177;SDS011;77;48.792;9.032;2022-07-10T15:34:19;4.60;;;2.30;;
177;SDS011;77;48.792;9.032;2022-07-10T15:36:45;4.27;;;1.90;;
177;SDS011;77;48.792;9.032;2022-07-10T15:39:10;5.83;;;1.97;;
177;SDS011;77;48.792;9.032;2022-07-10T15:41:36;3.17;;;1.80;;
177;SDS011;77;48.792;9.032;2022-07-10T15:44:01;4.20;;;2.00;;
177;SDS011;77;48.792;9.032;2022-07-10T15:46:26;5.07;;;2.27;;
177;SDS011;77;48.792;9.032;2022-07-10T15:48:51;3.87;;;2.00;;
177;SDS011;77;48.792;9.032;2022-07-10T15:51:16;5.33;;;2.07;;
177;SDS011;77;48.792;9.032;2022-07-10T15:53:43;6.00;;;2.30;;
177;SDS011;77;48.792;9.032;2022-07-10T15:56:08;3.33;;;1.97;;